createdAt,value
2022-08-28T00:01:16.032Z,19.59
2022-08-28T00:03:45.089Z,19.58
2022-08-28T00:06:13.858Z,19.54
2022-08-28T00:08:42.246Z,19.51
2022-08-28T00:11:10.882Z,19.49
2022-08-28T00:13:39.460Z,19.45
2022-08-28T00:16:07.926Z,19.40
2022-08-28T00:18:36.476Z,19.36
2022-08-28T00:21:06.250Z,19.32
2022-08-28T00:23:42.320Z,19.28
2022-08-28T00:26:32.643Z,19.23
2022-08-28T00:29:01.289Z,19.18
2022-08-28T00:31:30.259Z,19.14
2022-08-28T00:33:58.812Z,19.10
2022-08-28T00:36:27.454Z,19.05
2022-08-28T00:38:56.488Z,19.02
2022-08-28T00:41:27.542Z,18.99
2022-08-28T00:44:30.216Z,18.95
2022-08-28T00:46:59.927Z,18.92
2022-08-28T00:49:32.301Z,18.89
2022-08-28T00:52:06.209Z,18.85
2022-08-28T00:54:42.537Z,18.80
2022-08-28T00:57:34.568Z,18.75
2022-08-28T01:00:06.156Z,18.70
2022-08-28T01:02:35.000Z,18.68
2022-08-28T01:05:05.098Z,18.65
2022-08-28T01:07:34.706Z,18.62
2022-08-28T01:10:09.112Z,18.61
2022-08-28T01:12:38.410Z,18.59
2022-08-28T01:15:14.032Z,18.56
2022-08-28T01:17:47.721Z,18.55
2022-08-28T01:20:21.538Z,18.51
2022-08-28T01:23:11.562Z,18.49
2022-08-28T01:25:41.885Z,18.46
2022-08-28T01:28:13.528Z,18.44
2022-08-28T01:30:46.750Z,18.40
2022-08-28T01:33:16.344Z,18.37
2022-08-28T01:35:48.121Z,18.36
2022-08-28T01:38:20.131Z,18.37
2022-08-28T01:40:55.410Z,18.38
2022-08-28T01:43:26.576Z,18.40
2022-08-28T01:45:59.900Z,18.43
2022-08-28T01:48:30.206Z,18.45
2022-08-28T01:50:59.589Z,18.47
2022-08-28T01:53:32.638Z,18.47
2022-08-28T01:56:05.264Z,18.47
2022-08-28T01:58:38.095Z,18.47
2022-08-28T02:01:16.175Z,18.46
2022-08-28T02:03:45.625Z,18.45
2022-08-28T02:06:15.769Z,18.42
2022-08-28T02:08:45.378Z,18.40
2022-08-28T02:11:15.481Z,18.37
2022-08-28T02:13:43.980Z,18.33
2022-08-28T02:16:13.384Z,18.29
2022-08-28T02:18:42.377Z,18.23
2022-08-28T02:21:12.397Z,18.15
2022-08-28T02:23:43.237Z,18.11
2022-08-28T02:26:13.459Z,18.09
2022-08-28T02:28:42.770Z,18.08
2022-08-28T02:31:11.989Z,18.10
2022-08-28T02:33:43.892Z,18.10
2022-08-28T02:36:14.780Z,18.11
2022-08-28T02:38:46.701Z,18.11
2022-08-28T02:41:15.410Z,18.11
2022-08-28T02:43:44.001Z,18.10
2022-08-28T02:46:13.123Z,18.09
2022-08-28T02:48:42.019Z,18.08
2022-08-28T02:51:13.756Z,18.07
2022-08-28T02:53:42.993Z,18.05
2022-08-28T02:56:12.200Z,18.02
2022-08-28T02:58:41.052Z,17.98
2022-08-28T03:01:12.979Z,17.94
2022-08-28T03:03:42.963Z,17.90
2022-08-28T03:06:13.241Z,17.88
2022-08-28T03:08:43.362Z,17.88
2022-08-28T03:11:12.662Z,17.89
2022-08-28T03:13:42.650Z,17.91
2022-08-28T03:16:11.663Z,17.94
2022-08-28T03:18:40.937Z,17.94
2022-08-28T03:21:10.177Z,17.94
2022-08-28T03:23:39.332Z,17.94
2022-08-28T03:26:10.824Z,17.93
2022-08-28T03:28:49.755Z,17.89
2022-08-28T03:31:23.321Z,17.87
2022-08-28T03:33:53.424Z,17.83
2022-08-28T03:36:28.026Z,17.78
2022-08-28T03:38:58.942Z,17.76
2022-08-28T03:41:30.009Z,17.75
2022-08-28T03:44:01.006Z,17.74
2022-08-28T03:46:34.733Z,17.75
2022-08-28T03:49:05.059Z,17.75
2022-08-28T03:51:34.770Z,17.78
2022-08-28T03:54:04.354Z,17.80
2022-08-28T03:56:32.964Z,17.82
2022-08-28T03:59:03.394Z,17.84
2022-08-28T04:01:33.966Z,17.85
2022-08-28T04:04:02.598Z,17.87
2022-08-28T04:06:32.227Z,17.87
2022-08-28T04:09:00.661Z,17.90
2022-08-28T04:11:29.593Z,17.91
2022-08-28T04:13:58.484Z,17.94
2022-08-28T04:16:28.239Z,17.97
2022-08-28T04:18:58.950Z,18.02
2022-08-28T04:21:28.539Z,18.07
2022-08-28T04:23:57.023Z,18.12
2022-08-28T04:26:27.650Z,18.18
2022-08-28T04:28:57.265Z,18.26
2022-08-28T04:31:31.596Z,18.35
2022-08-28T04:34:04.171Z,18.46
2022-08-28T04:36:36.326Z,18.57
2022-08-28T04:39:08.828Z,18.71
2022-08-28T04:41:39.029Z,18.85
2022-08-28T04:44:08.381Z,19.01
2022-08-28T04:46:37.694Z,19.15
2022-08-28T04:49:06.322Z,19.32
2022-08-28T04:51:37.773Z,19.50
2022-08-28T04:54:11.033Z,19.69
2022-08-28T04:56:41.561Z,19.86
2022-08-28T04:59:12.100Z,20.08
2022-08-28T05:01:42.828Z,20.26
2022-08-28T05:04:12.806Z,20.45
2022-08-28T05:06:46.430Z,20.66
2022-08-28T05:09:19.470Z,20.89
2022-08-28T05:11:49.824Z,21.11
2022-08-28T05:14:19.410Z,21.33
2022-08-28T05:16:51.035Z,21.56
2022-08-28T05:19:21.010Z,21.79
2022-08-28T05:21:49.876Z,22.02
2022-08-28T05:24:19.359Z,22.25
2022-08-28T05:26:48.496Z,22.48
2022-08-28T05:29:17.792Z,22.73
2022-08-28T05:31:46.661Z,22.98
2022-08-28T05:34:16.915Z,23.20
2022-08-28T05:36:45.480Z,23.42
2022-08-28T05:39:14.581Z,23.60
2022-08-28T05:41:45.213Z,23.75
2022-08-28T05:44:16.285Z,23.91
2022-08-28T05:46:45.248Z,24.12
2022-08-28T05:49:13.937Z,24.34
2022-08-28T05:51:43.161Z,24.60
2022-08-28T05:54:12.850Z,24.86
2022-08-28T05:56:43.249Z,25.10
2022-08-28T05:59:13.649Z,25.34
2022-08-28T06:01:45.468Z,25.60
2022-08-28T06:04:18.055Z,25.86
2022-08-28T06:06:47.001Z,26.11
2022-08-28T06:09:20.050Z,26.34
2022-08-28T06:11:49.856Z,26.60
2022-08-28T06:14:20.933Z,26.88
2022-08-28T06:16:52.846Z,27.14
2022-08-28T06:19:24.381Z,27.43
2022-08-28T06:21:58.229Z,27.71
2022-08-28T06:24:28.295Z,28.00
2022-08-28T06:26:58.641Z,28.26
2022-08-28T06:29:28.524Z,28.47
2022-08-28T06:31:59.871Z,28.66
2022-08-28T06:34:29.389Z,28.79
2022-08-28T06:36:58.221Z,28.90
2022-08-28T06:39:27.178Z,28.95
2022-08-28T06:41:55.657Z,29.09
2022-08-28T06:44:24.465Z,29.25
2022-08-28T06:46:55.236Z,29.48
2022-08-28T06:49:23.913Z,29.68
2022-08-28T06:51:52.496Z,29.91
2022-08-28T06:54:23.102Z,30.10
2022-08-28T06:56:53.353Z,30.22
2022-08-28T06:59:21.938Z,30.35
2022-08-28T07:01:55.096Z,30.51
2022-08-28T07:04:23.696Z,30.60
2022-08-28T07:06:54.496Z,30.64
2022-08-28T07:09:24.895Z,30.79
2022-08-28T07:11:53.896Z,31.02
2022-08-28T07:14:22.196Z,31.28
2022-08-28T07:16:51.726Z,31.56
2022-08-28T07:19:20.860Z,31.74
2022-08-28T07:21:49.445Z,31.88
2022-08-28T07:24:18.665Z,31.97
2022-08-28T07:26:48.254Z,32.13
2022-08-28T07:29:18.585Z,32.35
2022-08-28T07:31:50.956Z,32.56
2022-08-28T07:34:21.952Z,32.71
2022-08-28T07:36:56.651Z,32.99
2022-08-28T07:39:25.209Z,33.25
2022-08-28T07:41:53.897Z,33.34
2022-08-28T07:44:40.977Z,33.51
2022-08-28T07:47:11.827Z,33.57
2022-08-28T07:49:40.918Z,33.43
2022-08-28T07:52:10.661Z,33.36
2022-08-28T07:54:40.856Z,33.49
2022-08-28T07:57:10.565Z,33.71
2022-08-28T07:59:42.192Z,33.87
2022-08-28T08:02:11.512Z,34.09
2022-08-28T08:04:40.962Z,34.40
2022-08-28T08:07:10.264Z,34.54
2022-08-28T08:09:43.541Z,34.52
2022-08-28T08:12:13.947Z,34.65
2022-08-28T08:14:44.047Z,34.68
2022-08-28T08:17:12.382Z,34.86
2022-08-28T08:19:41.484Z,35.09
2022-08-28T08:22:10.272Z,35.25
2022-08-28T08:24:38.758Z,35.45
2022-08-28T08:27:07.276Z,35.67
2022-08-28T08:29:37.995Z,35.85
2022-08-28T08:32:09.735Z,36.08
2022-08-28T08:34:42.531Z,36.26
2022-08-28T08:37:11.981Z,36.38
2022-08-28T08:39:42.178Z,36.36
2022-08-28T08:42:24.505Z,36.47
2022-08-28T08:44:55.536Z,36.69
2022-08-28T08:47:48.042Z,36.90
2022-08-28T08:50:19.702Z,37.09
2022-08-28T08:52:48.080Z,37.29
2022-08-28T08:55:29.042Z,37.42
2022-08-28T08:58:07.982Z,37.53
2022-08-28T09:01:04.879Z,37.58
2022-08-28T09:03:44.170Z,37.84
2022-08-28T09:06:39.158Z,38.00
2022-08-28T09:09:31.313Z,38.21
2022-08-28T09:12:06.581Z,38.26
2022-08-28T09:14:57.972Z,38.42
2022-08-28T09:17:36.080Z,38.66
2022-08-28T09:20:09.759Z,38.68
2022-08-28T09:22:44.172Z,38.75
2022-08-28T09:25:33.916Z,38.88
2022-08-28T09:28:08.400Z,39.11
2022-08-28T09:30:38.245Z,39.20
2022-08-28T09:33:06.926Z,39.32
2022-08-28T09:35:37.597Z,39.58
2022-08-28T09:38:27.661Z,39.67
2022-08-28T09:41:30.219Z,39.32
2022-08-28T09:43:59.318Z,39.25
2022-08-28T09:46:32.884Z,39.05
2022-08-28T09:49:12.360Z,38.70
2022-08-28T09:51:42.068Z,38.72
2022-08-28T09:54:26.937Z,38.92
2022-08-28T09:56:56.200Z,39.15
2022-08-28T09:59:28.056Z,39.14
2022-08-28T10:02:30.274Z,39.11
2022-08-28T10:05:09.509Z,39.27
2022-08-28T10:07:52.125Z,39.38
2022-08-28T10:10:41.766Z,39.50
2022-08-28T10:13:35.882Z,39.54
2022-08-28T10:16:05.115Z,39.28
2022-08-28T10:18:40.531Z,38.79
2022-08-28T10:21:33.284Z,38.29
2022-08-28T10:24:27.644Z,38.31
2022-08-28T10:27:20.733Z,38.65
2022-08-28T10:30:34.386Z,39.08
2022-08-28T10:33:44.128Z,39.52
2022-08-28T10:36:34.013Z,39.77
2022-08-28T10:39:28.405Z,39.77
2022-08-28T10:42:05.178Z,39.44
2022-08-28T10:44:54.347Z,39.01
2022-08-28T10:47:26.116Z,38.58
2022-08-28T10:50:02.938Z,38.24
2022-08-28T10:52:34.233Z,37.85
2022-08-28T10:55:11.789Z,37.44
2022-08-28T10:57:52.329Z,37.58
2022-08-28T11:00:26.561Z,38.06
2022-08-28T11:02:59.746Z,38.51
2022-08-28T11:05:34.742Z,38.69
2022-08-28T11:08:08.030Z,39.04
2022-08-28T11:10:48.809Z,39.32
2022-08-28T11:13:43.819Z,39.47
2022-08-28T11:16:18.908Z,39.70
2022-08-28T11:19:08.631Z,39.92
2022-08-28T11:21:43.053Z,40.03
2022-08-28T11:24:25.931Z,40.19
2022-08-28T11:27:37.809Z,40.58
2022-08-28T11:30:09.597Z,40.92
2022-08-28T11:32:48.154Z,40.84
2022-08-28T11:35:49.394Z,40.38
2022-08-28T11:38:42.873Z,39.72
2022-08-28T11:41:16.121Z,39.48
2022-08-28T11:43:46.764Z,39.34
2022-08-28T11:46:36.547Z,39.15
2022-08-28T11:49:26.656Z,38.99
2022-08-28T11:52:31.919Z,39.14
2022-08-28T11:55:12.853Z,39.61
2022-08-28T12:00:41.094Z,39.81
2022-08-28T12:03:15.667Z,39.44
2022-08-28T12:05:55.879Z,39.18
2022-08-28T12:08:49.143Z,39.14
2022-08-28T12:11:39.850Z,39.19
2022-08-28T12:14:08.866Z,39.34
2022-08-28T12:16:59.453Z,39.63
2022-08-28T12:20:10.284Z,39.91
2022-08-28T12:22:50.680Z,40.21
2022-08-28T12:25:39.872Z,40.22
2022-08-28T12:28:30.061Z,40.31
2022-08-28T12:31:55.459Z,40.58
2022-08-28T12:34:46.068Z,41.07
2022-08-28T12:37:51.857Z,41.18
2022-08-28T12:40:42.345Z,41.10
2022-08-28T12:43:15.505Z,41.21
2022-08-28T12:45:54.191Z,41.10
2022-08-28T12:48:32.653Z,40.94
2022-08-28T12:51:08.266Z,40.65
2022-08-28T12:53:43.605Z,40.54
2022-08-28T12:56:15.151Z,40.18
2022-08-28T12:58:44.290Z,39.66
2022-08-28T13:01:33.763Z,39.36
2022-08-28T13:04:22.014Z,39.27
2022-08-28T13:07:01.045Z,39.22
2022-08-28T13:09:30.145Z,39.01
2022-08-28T13:11:58.728Z,39.01
2022-08-28T13:14:43.903Z,39.02
2022-08-28T13:17:14.324Z,38.93
2022-08-28T13:19:42.915Z,38.81
2022-08-28T13:22:40.948Z,38.52
2022-08-28T13:25:23.042Z,38.09
2022-08-28T13:28:05.073Z,37.79
2022-08-28T13:30:35.420Z,37.51
2022-08-28T13:33:20.605Z,37.44
2022-08-28T13:35:50.532Z,37.68
2022-08-28T13:38:21.049Z,38.07
2022-08-28T13:40:58.001Z,38.45
2022-08-28T13:43:31.045Z,38.94
2022-08-28T13:45:59.801Z,39.57
2022-08-28T13:48:28.529Z,40.00
2022-08-28T13:51:07.070Z,40.07
2022-08-28T13:53:39.692Z,40.17
2022-08-28T13:56:08.278Z,40.18
2022-08-28T13:59:40.349Z,40.37
2022-08-28T14:03:07.935Z,40.67
2022-08-28T14:06:35.339Z,40.76
2022-08-28T14:09:04.237Z,40.88
2022-08-28T14:11:33.586Z,41.26
2022-08-28T14:14:01.959Z,41.74
2022-08-28T14:16:30.797Z,42.01
2022-08-28T14:19:04.965Z,42.07
2022-08-28T14:21:35.676Z,42.09
2022-08-28T14:24:05.106Z,42.07
2022-08-28T14:26:34.063Z,42.25
2022-08-28T14:29:05.567Z,42.55
2022-08-28T14:31:37.051Z,42.80
2022-08-28T14:34:05.782Z,42.92
2022-08-28T14:36:34.237Z,43.08
2022-08-28T14:39:06.376Z,43.25
2022-08-28T14:41:35.898Z,43.52
2022-08-28T14:44:04.744Z,43.51
2022-08-28T14:46:36.016Z,43.36
2022-08-28T14:49:07.946Z,43.04
2022-08-28T14:51:38.553Z,42.87
2022-08-28T14:54:09.038Z,42.85
2022-08-28T14:56:38.039Z,42.95
2022-08-28T14:59:11.209Z,43.09
2022-08-28T15:01:44.296Z,43.05
2022-08-28T15:04:17.025Z,43.14
2022-08-28T15:06:46.224Z,43.26
2022-08-28T15:09:15.208Z,43.24
2022-08-28T15:11:44.539Z,43.34
2022-08-28T15:14:14.085Z,43.43
2022-08-28T15:16:45.594Z,43.56
2022-08-28T15:19:18.110Z,43.69
2022-08-28T15:21:52.264Z,43.81
2022-08-28T15:24:23.824Z,43.86
2022-08-28T15:26:52.680Z,43.98
2022-08-28T15:29:21.364Z,44.05
2022-08-28T15:31:51.299Z,43.93
2022-08-28T15:34:25.705Z,43.78
2022-08-28T15:36:56.244Z,43.71
2022-08-28T15:39:47.758Z,43.57
2022-08-28T15:42:16.525Z,43.41
2022-08-28T15:44:45.235Z,43.18
2022-08-28T15:47:16.479Z,42.95
2022-08-28T15:49:48.858Z,42.75
2022-08-28T15:52:19.682Z,42.45
2022-08-28T15:54:50.048Z,41.96
2022-08-28T15:57:18.506Z,41.36
2022-08-28T15:59:49.602Z,40.69
2022-08-28T16:02:23.394Z,40.03
2022-08-28T16:04:53.506Z,39.44
2022-08-28T16:07:23.186Z,38.89
2022-08-28T16:09:52.286Z,38.30
2022-08-28T16:12:20.930Z,37.83
2022-08-28T16:14:50.687Z,37.40
2022-08-28T16:17:19.332Z,36.97
2022-08-28T16:19:48.775Z,36.57
2022-08-28T16:22:18.099Z,36.21
2022-08-28T16:24:46.970Z,35.84
2022-08-28T16:27:16.631Z,35.49
2022-08-28T16:29:45.779Z,35.16
2022-08-28T16:32:14.261Z,34.82
2022-08-28T16:34:44.736Z,34.48
2022-08-28T16:37:14.356Z,34.13
2022-08-28T16:39:48.367Z,33.78
2022-08-28T16:42:17.715Z,33.46
2022-08-28T16:44:46.098Z,33.13
2022-08-28T16:47:15.503Z,32.82
2022-08-28T16:49:44.071Z,32.52
2022-08-28T16:52:12.672Z,32.24
2022-08-28T16:54:48.380Z,31.98
2022-08-28T16:57:18.642Z,31.71
2022-08-28T16:59:48.312Z,31.48
2022-08-28T17:02:26.712Z,31.27
2022-08-28T17:04:58.969Z,31.07
2022-08-28T17:07:28.365Z,30.86
2022-08-28T17:09:56.935Z,30.65
2022-08-28T17:12:25.545Z,30.46
2022-08-28T17:14:56.522Z,30.26
2022-08-28T17:17:24.838Z,30.06
2022-08-28T17:19:53.323Z,29.86
2022-08-28T17:22:33.990Z,29.68
2022-08-28T17:26:05.759Z,29.49
2022-08-28T17:29:34.667Z,29.23
2022-08-28T17:33:03.046Z,29.00
2022-08-28T17:36:35.325Z,28.79
2022-08-28T17:40:03.493Z,28.57
2022-08-28T17:42:31.990Z,28.34
2022-08-28T17:45:00.376Z,28.20
2022-08-28T17:47:30.988Z,28.05
2022-08-28T17:50:01.636Z,27.91
2022-08-28T17:52:30.323Z,27.77
2022-08-28T17:54:58.973Z,27.63
2022-08-28T17:57:30.676Z,27.49
2022-08-28T18:00:01.421Z,27.34
2022-08-28T18:02:40.641Z,27.20
2022-08-28T18:05:11.336Z,27.07
2022-08-28T18:07:39.860Z,26.93
2022-08-28T18:10:11.582Z,26.79
2022-08-28T18:12:41.225Z,26.63
2022-08-28T18:15:13.003Z,26.48
2022-08-28T18:17:42.713Z,26.32
2022-08-28T18:20:12.376Z,26.20
2022-08-28T18:22:40.890Z,26.07
2022-08-28T18:25:30.081Z,25.96
2022-08-28T18:27:58.951Z,25.84
2022-08-28T18:30:28.253Z,25.74
2022-08-28T18:33:02.396Z,25.64
2022-08-28T18:35:32.401Z,25.55
2022-08-28T18:38:01.841Z,25.47
2022-08-28T18:40:31.307Z,25.39
2022-08-28T18:43:00.292Z,25.31
2022-08-28T18:45:28.772Z,25.22
2022-08-28T18:47:58.280Z,25.13
2022-08-28T18:50:28.838Z,25.05
2022-08-28T18:52:59.048Z,24.95
2022-08-28T18:55:30.903Z,24.85
2022-08-28T18:58:02.421Z,24.74
2022-08-28T19:00:32.123Z,24.66
2022-08-28T19:03:00.826Z,24.58
2022-08-28T19:05:29.744Z,24.50
2022-08-28T19:07:59.659Z,24.41
2022-08-28T19:10:34.067Z,24.33
2022-08-28T19:13:05.877Z,24.26
2022-08-28T19:15:35.886Z,24.20
2022-08-28T19:18:05.731Z,24.15
2022-08-28T19:20:35.358Z,24.08
2022-08-28T19:23:03.865Z,24.02
2022-08-28T19:25:32.962Z,23.92
2022-08-28T19:28:02.386Z,23.84
2022-08-28T19:30:34.090Z,23.76
2022-08-28T19:33:04.889Z,23.69
2022-08-28T19:35:34.163Z,23.64
2022-08-28T19:38:02.910Z,23.59
2022-08-28T19:40:34.130Z,23.51
2022-08-28T19:43:02.948Z,23.43
2022-08-28T19:45:34.750Z,23.37
2022-08-28T19:48:03.877Z,23.34
2022-08-28T19:50:32.497Z,23.31
2022-08-28T19:53:00.945Z,23.26
2022-08-28T19:55:29.866Z,23.22
2022-08-28T19:57:58.698Z,23.17
2022-08-28T20:00:33.311Z,23.11
2022-08-28T20:03:02.169Z,23.04
2022-08-28T20:05:30.754Z,23.00
2022-08-28T20:07:59.183Z,22.96
2022-08-28T20:10:27.769Z,22.93
2022-08-28T20:12:56.770Z,22.89
2022-08-28T20:15:26.064Z,22.86
2022-08-28T20:17:54.706Z,22.81
2022-08-28T20:20:27.947Z,22.77
2022-08-28T20:22:58.173Z,22.74
2022-08-28T20:25:27.982Z,22.72
2022-08-28T20:28:01.411Z,22.68
2022-08-28T20:30:30.934Z,22.63
2022-08-28T20:33:01.006Z,22.60
2022-08-28T20:35:29.753Z,22.56
2022-08-28T20:37:58.587Z,22.52
2022-08-28T20:40:27.323Z,22.46
2022-08-28T20:42:55.756Z,22.40
2022-08-28T20:45:24.764Z,22.35
2022-08-28T20:47:53.335Z,22.30
2022-08-28T20:50:22.022Z,22.26
2022-08-28T20:52:50.720Z,22.22
2022-08-28T20:55:19.499Z,22.19
2022-08-28T20:57:47.982Z,22.17
2022-08-28T21:00:16.669Z,22.15
2022-08-28T21:02:45.726Z,22.12
2022-08-28T21:05:14.131Z,22.08
2022-08-28T21:07:43.654Z,22.04
2022-08-28T21:10:12.333Z,22.00
2022-08-28T21:12:40.682Z,21.98
2022-08-28T21:15:12.721Z,21.96
2022-08-28T21:17:41.945Z,21.94
2022-08-28T21:20:14.628Z,21.91
2022-08-28T21:22:43.764Z,21.87
2022-08-28T21:25:13.652Z,21.80
2022-08-28T21:27:43.699Z,21.75
2022-08-28T21:30:17.386Z,21.69
2022-08-28T21:32:46.604Z,21.64
2022-08-28T21:35:18.567Z,21.58
2022-08-28T21:37:49.305Z,21.50
2022-08-28T21:40:18.666Z,21.43
2022-08-28T21:42:47.396Z,21.38
2022-08-28T21:45:16.390Z,21.31
2022-08-28T21:47:44.769Z,21.25
2022-08-28T21:50:13.570Z,21.18
2022-08-28T21:52:42.168Z,21.15
2022-08-28T21:55:14.717Z,21.09
2022-08-28T21:57:44.023Z,21.04
2022-08-28T22:00:17.868Z,21.01
2022-08-28T22:02:47.629Z,20.96
2022-08-28T22:05:17.263Z,20.94
2022-08-28T22:07:45.833Z,20.91
2022-08-28T22:10:15.548Z,20.89
2022-08-28T22:12:44.440Z,20.89
2022-08-28T22:15:13.134Z,20.88
2022-08-28T22:17:41.816Z,20.87
2022-08-28T22:20:11.043Z,20.84
2022-08-28T22:22:58.442Z,20.81
2022-08-28T22:25:27.128Z,20.78
2022-08-28T22:27:55.501Z,20.75
2022-08-28T22:30:24.250Z,20.72
2022-08-28T22:32:53.672Z,20.67
2022-08-28T22:35:23.272Z,20.61
2022-08-28T22:37:51.897Z,20.59
2022-08-28T22:40:21.957Z,20.57
2022-08-28T22:42:51.479Z,20.54
2022-08-28T22:45:20.885Z,20.53
2022-08-28T22:47:50.084Z,20.52
2022-08-28T22:50:19.127Z,20.48
2022-08-28T22:52:49.447Z,20.42
2022-08-28T22:55:21.243Z,20.36
2022-08-28T22:57:50.612Z,20.32
2022-08-28T23:00:24.118Z,20.28
2022-08-28T23:02:54.680Z,20.23
2022-08-28T23:05:25.648Z,20.21
2022-08-28T23:07:55.542Z,20.18
2022-08-28T23:10:42.066Z,20.15
2022-08-28T23:13:14.242Z,20.13
2022-08-28T23:15:43.768Z,20.12
2022-08-28T23:18:12.284Z,20.10
2022-08-28T23:20:41.359Z,20.09
2022-08-28T23:23:11.790Z,20.06
2022-08-28T23:25:40.580Z,20.03
2022-08-28T23:28:09.472Z,19.99
2022-08-28T23:30:39.256Z,19.94
2022-08-28T23:33:08.555Z,19.90
2022-08-28T23:35:37.581Z,19.85
2022-08-28T23:38:06.061Z,19.84
2022-08-28T23:40:37.545Z,19.82
2022-08-28T23:43:06.201Z,19.78
2022-08-28T23:45:35.034Z,19.71
2022-08-28T23:48:04.217Z,19.69
2022-08-28T23:50:34.368Z,19.67
2022-08-28T23:53:04.364Z,19.64
2022-08-28T23:55:33.736Z,19.61
2022-08-28T23:58:02.626Z,19.56
